sensor_id;sensor_type;location;lat;lon;timestamp;P1;durP1;ratioP1;P2;durP2;ratioP2
71810;SDS011;59657;0.000;0.000;2023-02-01T00:01:49;0.85;;;0.80;;
71810;SDS011;59657;0.000;0.000;2023-02-01T00:06:42;0.50;;;0.50;;
71810;SDS011;59657;0.000;0.000;2023-02-01T00:09:08;0.70;;;0.70;;
71810;SDS011;59657;0.000;0.000;2023-02-01T00:11:34;0.85;;;0.85;;
71810;SDS011;59657;0.000;0.000;2023-02-01T00:14:01;0.60;;;0.60;;
71810;SDS011;59657;0.000;0.000;2023-02-01T00:16:29;1.23;;;1.10;;
71810;SDS011;59657;0.000;0.000;2023-02-01T00:18:57;0.55;;;0.50;;
71810;SDS011;59657;0.000;0.000;2023-02-01T00:21:24;0.60;;;0.60;;
71810;SDS011;59657;0.000;0.000;2023-02-01T00:23:51;0.70;;;0.70;;
71810;SDS011;59657;0.000;0.000;2023-02-01T00:26:18;0.60;;;0.60;;
71810;SDS011;59657;0.000;0.000;2023-02-01T00:28:45;0.57;;;0.57;;
71810;SDS011;59657;0.000;0.000;2023-02-01T00:31:13;0.55;;;0.55;;
71810;SDS011;59657;0.000;0.000;2023-02-01T00:33:40;0.75;;;0.75;;
71810;SDS011;59657;0.000;0.000;2023-02-01T00:38:33;0.80;;;0.80;;
71810;SDS011;59657;0.000;0.000;2023-02-01T00:41:14;0.60;;;0.60;;
71810;SDS011;59657;0.000;0.000;2023-02-01T00:43:41;0.68;;;0.68;;
71810;SDS011;59657;0.000;0.000;2023-02-01T00:46:08;0.50;;;0.50;;
71810;SDS011;59657;0.000;0.000;2023-02-01T00:48:35;0.50;;;0.50;;
71810;SDS011;59657;0.000;0.000;2023-02-01T00:51:06;0.70;;;0.70;;
71810;SDS011;59657;0.000;0.000;2023-02-01T00:53:33;0.82;;;0.82;;
71810;SDS011;59657;0.000;0.000;2023-02-01T00:56:00;0.70;;;0.70;;
71810;SDS011;59657;0.000;0.000;2023-02-01T00:58:27;0.70;;;0.70;;
71810;SDS011;59657;0.000;0.000;2023-02-01T01:01:10;1.15;;;1.15;;
71810;SDS011;59657;0.000;0.000;2023-02-01T01:03:38;0.70;;;0.70;;
71810;SDS011;59657;0.000;0.000;2023-02-01T01:06:06;0.77;;;0.77;;
71810;SDS011;59657;0.000;0.000;2023-02-01T01:08:33;0.68;;;0.68;;
71810;SDS011;59657;0.000;0.000;2023-02-01T01:11:04;0.70;;;0.70;;
71810;SDS011;59657;0.000;0.000;2023-02-01T01:13:31;0.80;;;0.80;;
71810;SDS011;59657;0.000;0.000;2023-02-01T01:18:26;0.50;;;0.50;;
71810;SDS011;59657;0.000;0.000;2023-02-01T01:23:19;0.82;;;0.82;;
71810;SDS011;59657;0.000;0.000;2023-02-01T01:25:45;0.80;;;0.80;;
71810;SDS011;59657;0.000;0.000;2023-02-01T01:30:39;0.68;;;0.68;;
71810;SDS011;59657;0.000;0.000;2023-02-01T01:33:06;0.70;;;0.70;;
71810;SDS011;59657;0.000;0.000;2023-02-01T01:37:59;1.05;;;1.05;;
71810;SDS011;59657;0.000;0.000;2023-02-01T01:40:26;0.85;;;0.85;;
71810;SDS011;59657;0.000;0.000;2023-02-01T01:42:53;0.70;;;0.70;;
71810;SDS011;59657;0.000;0.000;2023-02-01T01:45:25;1.20;;;0.82;;
71810;SDS011;59657;0.000;0.000;2023-02-01T01:47:53;1.23;;;1.23;;
71810;SDS011;59657;0.000;0.000;2023-02-01T01:50:22;1.33;;;0.70;;
71810;SDS011;59657;0.000;0.000;2023-02-01T01:52:50;0.80;;;0.80;;
71810;SDS011;59657;0.000;0.000;2023-02-01T01:55:18;0.60;;;0.60;;
71810;SDS011;59657;0.000;0.000;2023-02-01T01:57:47;0.80;;;0.80;;
71810;SDS011;59657;0.000;0.000;2023-02-01T02:00:16;0.77;;;0.77;;
71810;SDS011;59657;0.000;0.000;2023-02-01T02:02:44;0.75;;;0.75;;
71810;SDS011;59657;0.000;0.000;2023-02-01T02:05:12;0.73;;;0.73;;
71810;SDS011;59657;0.000;0.000;2023-02-01T02:07:40;0.90;;;0.90;;
71810;SDS011;59657;0.000;0.000;2023-02-01T02:10:08;0.70;;;0.70;;
71810;SDS011;59657;0.000;0.000;2023-02-01T02:12:40;0.90;;;0.90;;
71810;SDS011;59657;0.000;0.000;2023-02-01T02:15:08;1.10;;;0.85;;
71810;SDS011;59657;0.000;0.000;2023-02-01T02:20:45;1.00;;;1.00;;
71810;SDS011;59657;0.000;0.000;2023-02-01T02:23:14;0.93;;;0.93;;
71810;SDS011;59657;0.000;0.000;2023-02-01T02:25:49;0.82;;;0.82;;
71810;SDS011;59657;0.000;0.000;2023-02-01T02:28:30;0.73;;;0.73;;
71810;SDS011;59657;0.000;0.000;2023-02-01T02:36:36;0.70;;;0.70;;
71810;SDS011;59657;0.000;0.000;2023-02-01T02:39:06;0.90;;;0.90;;
71810;SDS011;59657;0.000;0.000;2023-02-01T02:41:43;0.70;;;0.70;;
71810;SDS011;59657;0.000;0.000;2023-02-01T02:44:28;0.88;;;0.88;;
71810;SDS011;59657;0.000;0.000;2023-02-01T02:47:16;0.80;;;0.80;;
71810;SDS011;59657;0.000;0.000;2023-02-01T02:49:54;0.95;;;0.80;;
71810;SDS011;59657;0.000;0.000;2023-02-01T02:52:34;0.80;;;0.80;;
71810;SDS011;59657;0.000;0.000;2023-02-01T02:55:14;0.70;;;0.70;;
71810;SDS011;59657;0.000;0.000;2023-02-01T02:57:41;0.70;;;0.70;;
71810;SDS011;59657;0.000;0.000;2023-02-01T03:00:25;0.63;;;0.63;;
71810;SDS011;59657;0.000;0.000;2023-02-01T03:03:04;0.70;;;0.70;;
71810;SDS011;59657;0.000;0.000;2023-02-01T03:05:44;0.60;;;0.60;;
71810;SDS011;59657;0.000;0.000;2023-02-01T03:08:14;0.98;;;0.98;;
71810;SDS011;59657;0.000;0.000;2023-02-01T03:13:27;2.05;;;1.35;;
71810;SDS011;59657;0.000;0.000;2023-02-01T03:16:16;2.85;;;2.03;;
71810;SDS011;59657;0.000;0.000;2023-02-01T03:18:46;1.50;;;1.40;;
71810;SDS011;59657;0.000;0.000;2023-02-01T03:21:17;1.52;;;1.42;;
71810;SDS011;59657;0.000;0.000;2023-02-01T03:23:46;1.75;;;1.58;;
71810;SDS011;59657;0.000;0.000;2023-02-01T03:26:14;2.15;;;1.65;;
71810;SDS011;59657;0.000;0.000;2023-02-01T03:28:45;1.55;;;1.40;;
71810;SDS011;59657;0.000;0.000;2023-02-01T03:31:13;1.48;;;1.38;;
71810;SDS011;59657;0.000;0.000;2023-02-01T03:33:40;1.60;;;1.42;;
71810;SDS011;59657;0.000;0.000;2023-02-01T03:38:48;1.50;;;1.40;;
71810;SDS011;59657;0.000;0.000;2023-02-01T03:41:24;2.03;;;1.92;;
71810;SDS011;59657;0.000;0.000;2023-02-01T03:43:58;1.10;;;1.10;;
71810;SDS011;59657;0.000;0.000;2023-02-01T03:46:30;1.25;;;1.23;;
71810;SDS011;59657;0.000;0.000;2023-02-01T03:49:00;1.25;;;1.25;;
71810;SDS011;59657;0.000;0.000;2023-02-01T03:51:28;1.27;;;1.27;;
71810;SDS011;59657;0.000;0.000;2023-02-01T03:53:56;1.13;;;1.13;;
71810;SDS011;59657;0.000;0.000;2023-02-01T03:56:23;1.58;;;1.48;;
71810;SDS011;59657;0.000;0.000;2023-02-01T03:58:51;1.65;;;1.55;;
71810;SDS011;59657;0.000;0.000;2023-02-01T04:01:25;1.25;;;1.15;;
71810;SDS011;59657;0.000;0.000;2023-02-01T04:03:52;1.30;;;1.27;;
71810;SDS011;59657;0.000;0.000;2023-02-01T04:06:19;1.08;;;1.08;;
71810;SDS011;59657;0.000;0.000;2023-02-01T04:08:45;1.20;;;1.20;;
71810;SDS011;59657;0.000;0.000;2023-02-01T04:13:38;2.17;;;2.08;;
71810;SDS011;59657;0.000;0.000;2023-02-01T04:16:05;1.10;;;1.10;;
71810;SDS011;59657;0.000;0.000;2023-02-01T04:20:57;1.20;;;1.10;;
71810;SDS011;59657;0.000;0.000;2023-02-01T04:25:50;1.85;;;1.33;;
71810;SDS011;59657;0.000;0.000;2023-02-01T04:30:43;1.40;;;1.30;;
71810;SDS011;59657;0.000;0.000;2023-02-01T04:33:10;1.30;;;1.20;;
71810;SDS011;59657;0.000;0.000;2023-02-01T04:35:39;1.98;;;1.20;;
71810;SDS011;59657;0.000;0.000;2023-02-01T04:38:06;1.00;;;1.00;;
71810;SDS011;59657;0.000;0.000;2023-02-01T04:40:32;1.30;;;1.20;;
71810;SDS011;59657;0.000;0.000;2023-02-01T04:43:00;1.52;;;1.42;;
71810;SDS011;59657;0.000;0.000;2023-02-01T04:45:26;1.70;;;1.42;;
71810;SDS011;59657;0.000;0.000;2023-02-01T04:47:53;1.75;;;1.20;;
71810;SDS011;59657;0.000;0.000;2023-02-01T04:50:19;1.30;;;1.27;;
71810;SDS011;59657;0.000;0.000;2023-02-01T04:52:46;1.20;;;1.20;;
71810;SDS011;59657;0.000;0.000;2023-02-01T04:55:13;1.30;;;1.30;;
71810;SDS011;59657;0.000;0.000;2023-02-01T04:57:39;1.35;;;1.25;;
71810;SDS011;59657;0.000;0.000;2023-02-01T05:00:07;1.48;;;1.38;;
71810;SDS011;59657;0.000;0.000;2023-02-01T05:02:34;1.52;;;1.42;;
71810;SDS011;59657;0.000;0.000;2023-02-01T05:05:01;1.30;;;1.20;;
71810;SDS011;59657;0.000;0.000;2023-02-01T05:07:27;1.45;;;1.30;;
71810;SDS011;59657;0.000;0.000;2023-02-01T05:09:54;1.42;;;1.33;;
71810;SDS011;59657;0.000;0.000;2023-02-01T05:12:20;1.27;;;1.25;;
71810;SDS011;59657;0.000;0.000;2023-02-01T05:15:04;1.77;;;1.67;;
71810;SDS011;59657;0.000;0.000;2023-02-01T05:17:31;1.40;;;1.30;;
71810;SDS011;59657;0.000;0.000;2023-02-01T05:19:57;2.22;;;1.20;;
71810;SDS011;59657;0.000;0.000;2023-02-01T05:22:24;1.27;;;1.27;;
71810;SDS011;59657;0.000;0.000;2023-02-01T05:24:53;1.20;;;1.20;;
71810;SDS011;59657;0.000;0.000;2023-02-01T05:27:19;1.40;;;1.30;;
71810;SDS011;59657;0.000;0.000;2023-02-01T05:29:46;1.40;;;1.30;;
71810;SDS011;59657;0.000;0.000;2023-02-01T05:32:12;1.23;;;1.13;;
71810;SDS011;59657;0.000;0.000;2023-02-01T05:34:39;1.25;;;1.25;;
71810;SDS011;59657;0.000;0.000;2023-02-01T05:37:06;1.20;;;1.20;;
71810;SDS011;59657;0.000;0.000;2023-02-01T05:39:32;1.75;;;1.65;;
71810;SDS011;59657;0.000;0.000;2023-02-01T05:41:59;1.70;;;1.25;;
71810;SDS011;59657;0.000;0.000;2023-02-01T05:44:25;1.50;;;1.40;;
71810;SDS011;59657;0.000;0.000;2023-02-01T05:46:52;1.75;;;1.65;;
71810;SDS011;59657;0.000;0.000;2023-02-01T05:49:18;1.70;;;1.60;;
71810;SDS011;59657;0.000;0.000;2023-02-01T05:51:45;1.65;;;1.52;;
71810;SDS011;59657;0.000;0.000;2023-02-01T05:54:12;1.40;;;1.30;;
71810;SDS011;59657;0.000;0.000;2023-02-01T05:56:38;1.30;;;1.20;;
71810;SDS011;59657;0.000;0.000;2023-02-01T05:59:06;1.70;;;1.60;;
71810;SDS011;59657;0.000;0.000;2023-02-01T06:01:33;1.40;;;1.30;;
71810;SDS011;59657;0.000;0.000;2023-02-01T06:03:59;2.13;;;1.50;;
71810;SDS011;59657;0.000;0.000;2023-02-01T06:06:26;1.50;;;1.40;;
71810;SDS011;59657;0.000;0.000;2023-02-01T06:08:52;1.50;;;1.40;;
71810;SDS011;59657;0.000;0.000;2023-02-01T06:11:19;1.83;;;1.73;;
71810;SDS011;59657;0.000;0.000;2023-02-01T06:13:45;1.52;;;1.42;;
71810;SDS011;59657;0.000;0.000;2023-02-01T06:16:11;1.95;;;1.85;;
71810;SDS011;59657;0.000;0.000;2023-02-01T06:18:41;1.75;;;1.65;;
71810;SDS011;59657;0.000;0.000;2023-02-01T06:21:08;1.92;;;1.83;;
71810;SDS011;59657;0.000;0.000;2023-02-01T06:26:01;2.42;;;1.52;;
71810;SDS011;59657;0.000;0.000;2023-02-01T06:28:29;2.20;;;2.00;;
71810;SDS011;59657;0.000;0.000;2023-02-01T06:33:23;1.85;;;1.75;;
71810;SDS011;59657;0.000;0.000;2023-02-01T06:35:56;1.73;;;1.63;;
71810;SDS011;59657;0.000;0.000;2023-02-01T06:40:53;1.73;;;1.58;;
71810;SDS011;59657;0.000;0.000;2023-02-01T06:43:20;2.25;;;2.05;;
71810;SDS011;59657;0.000;0.000;2023-02-01T06:45:47;2.40;;;2.20;;
71810;SDS011;59657;0.000;0.000;2023-02-01T06:48:13;2.55;;;2.22;;
71810;SDS011;59657;0.000;0.000;2023-02-01T06:50:40;2.17;;;1.98;;
71810;SDS011;59657;0.000;0.000;2023-02-01T06:53:06;2.20;;;2.00;;
71810;SDS011;59657;0.000;0.000;2023-02-01T06:55:33;2.53;;;2.05;;
71810;SDS011;59657;0.000;0.000;2023-02-01T06:57:59;2.55;;;2.08;;
71810;SDS011;59657;0.000;0.000;2023-02-01T07:00:27;2.83;;;2.00;;
71810;SDS011;59657;0.000;0.000;2023-02-01T07:02:54;2.03;;;1.83;;
71810;SDS011;59657;0.000;0.000;2023-02-01T07:05:20;2.13;;;2.00;;
71810;SDS011;59657;0.000;0.000;2023-02-01T07:07:47;2.17;;;2.08;;
71810;SDS011;59657;0.000;0.000;2023-02-01T07:10:14;2.00;;;1.90;;
71810;SDS011;59657;0.000;0.000;2023-02-01T07:12:40;2.65;;;2.20;;
71810;SDS011;59657;0.000;0.000;2023-02-01T07:15:07;2.42;;;2.10;;
71810;SDS011;59657;0.000;0.000;2023-02-01T07:17:33;2.22;;;1.80;;
71810;SDS011;59657;0.000;0.000;2023-02-01T07:20:00;2.28;;;2.08;;
71810;SDS011;59657;0.000;0.000;2023-02-01T07:22:27;2.92;;;1.85;;
71810;SDS011;59657;0.000;0.000;2023-02-01T07:24:54;2.40;;;2.20;;
71810;SDS011;59657;0.000;0.000;2023-02-01T07:27:20;1.98;;;1.73;;
71810;SDS011;59657;0.000;0.000;2023-02-01T07:29:50;2.28;;;1.85;;
71810;SDS011;59657;0.000;0.000;2023-02-01T07:32:16;2.00;;;1.85;;
71810;SDS011;59657;0.000;0.000;2023-02-01T07:34:44;2.30;;;1.98;;
71810;SDS011;59657;0.000;0.000;2023-02-01T07:37:10;2.30;;;2.10;;
71810;SDS011;59657;0.000;0.000;2023-02-01T07:39:37;2.08;;;1.88;;
71810;SDS011;59657;0.000;0.000;2023-02-01T07:42:04;2.78;;;2.03;;
71810;SDS011;59657;0.000;0.000;2023-02-01T07:44:30;1.90;;;1.80;;
71810;SDS011;59657;0.000;0.000;2023-02-01T07:46:57;1.90;;;1.80;;
71810;SDS011;59657;0.000;0.000;2023-02-01T07:49:23;2.13;;;2.00;;
71810;SDS011;59657;0.000;0.000;2023-02-01T07:51:50;1.88;;;1.77;;
71810;SDS011;59657;0.000;0.000;2023-02-01T07:54:16;1.73;;;1.63;;
71810;SDS011;59657;0.000;0.000;2023-02-01T07:56:43;1.98;;;1.88;;
71810;SDS011;59657;0.000;0.000;2023-02-01T07:59:09;1.75;;;1.65;;
71810;SDS011;59657;0.000;0.000;2023-02-01T08:01:37;1.63;;;1.52;;
71810;SDS011;59657;0.000;0.000;2023-02-01T08:04:03;1.90;;;1.77;;
71810;SDS011;59657;0.000;0.000;2023-02-01T08:06:31;2.15;;;2.05;;
71810;SDS011;59657;0.000;0.000;2023-02-01T08:08:59;1.83;;;1.73;;
71810;SDS011;59657;0.000;0.000;2023-02-01T08:11:25;2.03;;;1.90;;
71810;SDS011;59657;0.000;0.000;2023-02-01T08:13:52;2.10;;;1.90;;
71810;SDS011;59657;0.000;0.000;2023-02-01T08:16:19;1.73;;;1.63;;
71810;SDS011;59657;0.000;0.000;2023-02-01T08:18:46;2.20;;;2.00;;
71810;SDS011;59657;0.000;0.000;2023-02-01T08:21:15;2.08;;;1.98;;
71810;SDS011;59657;0.000;0.000;2023-02-01T08:23:42;1.75;;;1.65;;
71810;SDS011;59657;0.000;0.000;2023-02-01T08:26:12;2.20;;;2.00;;
71810;SDS011;59657;0.000;0.000;2023-02-01T08:28:40;2.20;;;2.00;;
71810;SDS011;59657;0.000;0.000;2023-02-01T08:31:09;2.03;;;1.88;;
71810;SDS011;59657;0.000;0.000;2023-02-01T08:33:35;2.35;;;1.90;;
71810;SDS011;59657;0.000;0.000;2023-02-01T08:38:28;2.35;;;2.05;;
71810;SDS011;59657;0.000;0.000;2023-02-01T08:40:55;1.55;;;1.42;;
71810;SDS011;59657;0.000;0.000;2023-02-01T08:43:22;1.77;;;1.67;;
71810;SDS011;59657;0.000;0.000;2023-02-01T08:45:49;2.17;;;1.88;;
71810;SDS011;59657;0.000;0.000;2023-02-01T08:48:16;2.10;;;2.00;;
71810;SDS011;59657;0.000;0.000;2023-02-01T08:50:42;1.77;;;1.67;;
71810;SDS011;59657;0.000;0.000;2023-02-01T08:53:09;1.60;;;1.50;;
71810;SDS011;59657;0.000;0.000;2023-02-01T08:55:38;1.50;;;1.40;;
71810;SDS011;59657;0.000;0.000;2023-02-01T08:58:05;1.73;;;1.63;;
71810;SDS011;59657;0.000;0.000;2023-02-01T09:00:31;1.52;;;1.42;;
71810;SDS011;59657;0.000;0.000;2023-02-01T09:02:58;1.58;;;1.52;;
71810;SDS011;59657;0.000;0.000;2023-02-01T09:05:25;1.42;;;1.33;;
71810;SDS011;59657;0.000;0.000;2023-02-01T09:10:18;1.55;;;1.20;;
71810;SDS011;59657;0.000;0.000;2023-02-01T09:12:44;1.60;;;1.50;;
71810;SDS011;59657;0.000;0.000;2023-02-01T09:15:11;1.33;;;1.30;;
71810;SDS011;59657;0.000;0.000;2023-02-01T09:17:37;1.30;;;1.20;;
71810;SDS011;59657;0.000;0.000;2023-02-01T09:20:04;1.92;;;1.35;;
71810;SDS011;59657;0.000;0.000;2023-02-01T09:22:31;1.58;;;1.48;;
71810;SDS011;59657;0.000;0.000;2023-02-01T09:24:57;1.67;;;1.58;;
71810;SDS011;59657;0.000;0.000;2023-02-01T09:27:24;1.65;;;1.55;;
71810;SDS011;59657;0.000;0.000;2023-02-01T09:29:51;1.73;;;1.63;;
71810;SDS011;59657;0.000;0.000;2023-02-01T09:32:19;1.48;;;1.38;;
71810;SDS011;59657;0.000;0.000;2023-02-01T09:34:45;1.60;;;1.50;;
71810;SDS011;59657;0.000;0.000;2023-02-01T09:37:12;1.58;;;1.48;;
71810;SDS011;59657;0.000;0.000;2023-02-01T09:39:38;1.42;;;1.40;;
71810;SDS011;59657;0.000;0.000;2023-02-01T09:42:11;1.52;;;1.42;;
71810;SDS011;59657;0.000;0.000;2023-02-01T09:44:52;1.67;;;1.58;;
71810;SDS011;59657;0.000;0.000;2023-02-01T09:47:20;1.20;;;1.20;;
71810;SDS011;59657;0.000;0.000;2023-02-01T09:50:09;1.50;;;1.40;;
71810;SDS011;59657;0.000;0.000;2023-02-01T09:52:36;1.77;;;1.40;;
71810;SDS011;59657;0.000;0.000;2023-02-01T09:55:09;1.50;;;1.40;;
71810;SDS011;59657;0.000;0.000;2023-02-01T09:57:41;1.30;;;1.30;;
71810;SDS011;59657;0.000;0.000;2023-02-01T10:00:18;1.63;;;1.52;;
71810;SDS011;59657;0.000;0.000;2023-02-01T10:02:46;1.90;;;1.70;;
71810;SDS011;59657;0.000;0.000;2023-02-01T10:05:15;1.30;;;1.20;;
71810;SDS011;59657;0.000;0.000;2023-02-01T10:07:51;1.40;;;1.30;;
71810;SDS011;59657;0.000;0.000;2023-02-01T10:10:28;1.35;;;1.27;;
71810;SDS011;59657;0.000;0.000;2023-02-01T10:13:09;2.20;;;2.00;;
71810;SDS011;59657;0.000;0.000;2023-02-01T10:15:43;1.42;;;1.23;;
71810;SDS011;59657;0.000;0.000;2023-02-01T10:18:15;1.20;;;1.17;;
71810;SDS011;59657;0.000;0.000;2023-02-01T10:23:29;1.75;;;1.65;;
71810;SDS011;59657;0.000;0.000;2023-02-01T10:26:04;1.50;;;1.40;;
71810;SDS011;59657;0.000;0.000;2023-02-01T10:28:33;1.50;;;1.40;;
71810;SDS011;59657;0.000;0.000;2023-02-01T10:31:01;1.50;;;1.40;;
71810;SDS011;59657;0.000;0.000;2023-02-01T10:33:37;1.55;;;1.20;;
71810;SDS011;59657;0.000;0.000;2023-02-01T10:38:50;1.40;;;1.30;;
71810;SDS011;59657;0.000;0.000;2023-02-01T10:41:17;1.73;;;1.63;;
71810;SDS011;59657;0.000;0.000;2023-02-01T10:43:48;1.70;;;1.60;;
71810;SDS011;59657;0.000;0.000;2023-02-01T10:46:15;1.80;;;1.70;;
71810;SDS011;59657;0.000;0.000;2023-02-01T10:48:42;2.58;;;1.95;;
71810;SDS011;59657;0.000;0.000;2023-02-01T10:51:12;1.70;;;1.60;;
71810;SDS011;59657;0.000;0.000;2023-02-01T10:53:47;1.95;;;1.85;;
71810;SDS011;59657;0.000;0.000;2023-02-01T10:56:14;2.08;;;1.50;;
71810;SDS011;59657;0.000;0.000;2023-02-01T10:58:44;1.58;;;1.48;;
71810;SDS011;59657;0.000;0.000;2023-02-01T11:03:56;2.10;;;1.90;;
71810;SDS011;59657;0.000;0.000;2023-02-01T11:06:32;1.92;;;1.83;;
71810;SDS011;59657;0.000;0.000;2023-02-01T11:09:00;2.00;;;1.90;;
71810;SDS011;59657;0.000;0.000;2023-02-01T11:11:27;2.00;;;1.90;;
71810;SDS011;59657;0.000;0.000;2023-02-01T11:13:57;2.65;;;2.45;;
71810;SDS011;59657;0.000;0.000;2023-02-01T11:19:06;2.05;;;1.88;;
71810;SDS011;59657;0.000;0.000;2023-02-01T11:21:33;2.95;;;2.47;;
71810;SDS011;59657;0.000;0.000;2023-02-01T11:24:00;1.80;;;1.67;;
71810;SDS011;59657;0.000;0.000;2023-02-01T11:26:27;1.52;;;1.42;;
71810;SDS011;59657;0.000;0.000;2023-02-01T11:29:03;1.67;;;1.58;;
71810;SDS011;59657;0.000;0.000;2023-02-01T11:31:30;1.83;;;1.73;;
71810;SDS011;59657;0.000;0.000;2023-02-01T11:34:04;1.75;;;1.65;;
71810;SDS011;59657;0.000;0.000;2023-02-01T11:36:32;1.58;;;1.38;;
71810;SDS011;59657;0.000;0.000;2023-02-01T11:39:08;1.63;;;1.50;;
71810;SDS011;59657;0.000;0.000;2023-02-01T11:41:40;1.20;;;1.08;;
71810;SDS011;59657;0.000;0.000;2023-02-01T11:46:45;2.15;;;1.20;;
71810;SDS011;59657;0.000;0.000;2023-02-01T11:49:29;1.50;;;1.40;;
71810;SDS011;59657;0.000;0.000;2023-02-01T11:52:01;1.00;;;1.00;;
71810;SDS011;59657;0.000;0.000;2023-02-01T11:54:34;1.40;;;1.40;;
71810;SDS011;59657;0.000;0.000;2023-02-01T11:57:23;1.25;;;1.20;;
71810;SDS011;59657;0.000;0.000;2023-02-01T11:59:56;0.90;;;0.90;;
71810;SDS011;59657;0.000;0.000;2023-02-01T12:02:33;0.95;;;0.95;;
71810;SDS011;59657;0.000;0.000;2023-02-01T12:05:08;0.93;;;0.93;;
71810;SDS011;59657;0.000;0.000;2023-02-01T12:07:47;1.20;;;1.20;;
71810;SDS011;59657;0.000;0.000;2023-02-01T12:10:21;1.17;;;1.17;;
71810;SDS011;59657;0.000;0.000;2023-02-01T12:18:17;0.90;;;0.90;;
71810;SDS011;59657;0.000;0.000;2023-02-01T12:26:32;0.80;;;0.80;;
71810;SDS011;59657;0.000;0.000;2023-02-01T12:29:02;1.15;;;1.15;;
71810;SDS011;59657;0.000;0.000;2023-02-01T12:34:20;0.90;;;0.90;;
71810;SDS011;59657;0.000;0.000;2023-02-01T12:39:39;0.88;;;0.88;;
71810;SDS011;59657;0.000;0.000;2023-02-01T12:47:32;1.08;;;1.08;;
71810;SDS011;59657;0.000;0.000;2023-02-01T12:50:03;1.13;;;1.13;;
71810;SDS011;59657;0.000;0.000;2023-02-01T12:52:36;1.10;;;1.10;;
71810;SDS011;59657;0.000;0.000;2023-02-01T12:55:07;0.98;;;0.98;;
71810;SDS011;59657;0.000;0.000;2023-02-01T12:57:38;0.70;;;0.70;;
71810;SDS011;59657;0.000;0.000;2023-02-01T13:00:13;0.93;;;0.93;;
71810;SDS011;59657;0.000;0.000;2023-02-01T13:02:54;1.20;;;1.10;;
71810;SDS011;59657;0.000;0.000;2023-02-01T13:05:24;0.90;;;0.90;;
71810;SDS011;59657;0.000;0.000;2023-02-01T13:10:41;1.10;;;1.02;;
71810;SDS011;59657;0.000;0.000;2023-02-01T13:15:39;0.68;;;0.68;;
71810;SDS011;59657;0.000;0.000;2023-02-01T13:18:09;0.77;;;0.75;;
71810;SDS011;59657;0.000;0.000;2023-02-01T13:20:39;0.80;;;0.80;;
71810;SDS011;59657;0.000;0.000;2023-02-01T13:23:18;1.02;;;0.90;;
71810;SDS011;59657;0.000;0.000;2023-02-01T13:25:47;0.88;;;0.88;;
71810;SDS011;59657;0.000;0.000;2023-02-01T13:28:20;1.27;;;1.27;;
71810;SDS011;59657;0.000;0.000;2023-02-01T13:30:57;0.90;;;0.90;;
71810;SDS011;59657;0.000;0.000;2023-02-01T13:33:34;0.82;;;0.82;;
71810;SDS011;59657;0.000;0.000;2023-02-01T13:36:21;1.05;;;0.88;;
71810;SDS011;59657;0.000;0.000;2023-02-01T13:39:02;0.88;;;0.88;;
71810;SDS011;59657;0.000;0.000;2023-02-01T13:41:40;0.63;;;0.63;;
71810;SDS011;59657;0.000;0.000;2023-02-01T13:44:13;0.80;;;0.80;;
71810;SDS011;59657;0.000;0.000;2023-02-01T13:46:41;1.13;;;1.05;;
71810;SDS011;59657;0.000;0.000;2023-02-01T13:49:15;1.20;;;1.10;;
71810;SDS011;59657;0.000;0.000;2023-02-01T13:51:45;0.90;;;0.90;;
71810;SDS011;59657;0.000;0.000;2023-02-01T13:56:56;1.70;;;1.10;;
71810;SDS011;59657;0.000;0.000;2023-02-01T14:04:55;0.70;;;0.70;;
71810;SDS011;59657;0.000;0.000;2023-02-01T14:07:22;0.82;;;0.82;;
71810;SDS011;59657;0.000;0.000;2023-02-01T14:09:49;0.70;;;0.70;;
71810;SDS011;59657;0.000;0.000;2023-02-01T14:14:41;1.00;;;1.00;;
71810;SDS011;59657;0.000;0.000;2023-02-01T14:19:34;0.90;;;0.90;;
71810;SDS011;59657;0.000;0.000;2023-02-01T14:24:31;0.90;;;0.90;;
71810;SDS011;59657;0.000;0.000;2023-02-01T14:26:59;1.10;;;1.00;;
71810;SDS011;59657;0.000;0.000;2023-02-01T14:29:34;1.00;;;1.00;;
71810;SDS011;59657;0.000;0.000;2023-02-01T14:32:05;0.77;;;0.77;;
71810;SDS011;59657;0.000;0.000;2023-02-01T14:34:39;1.08;;;1.08;;
71810;SDS011;59657;0.000;0.000;2023-02-01T14:39:59;1.10;;;1.10;;
71810;SDS011;59657;0.000;0.000;2023-02-01T14:47:48;2.15;;;1.98;;
71810;SDS011;59657;0.000;0.000;2023-02-01T14:53:10;1.45;;;1.35;;
71810;SDS011;59657;0.000;0.000;2023-02-01T14:58:36;1.13;;;1.13;;
71810;SDS011;59657;0.000;0.000;2023-02-01T15:06:31;0.90;;;0.90;;
71810;SDS011;59657;0.000;0.000;2023-02-01T15:09:04;1.00;;;1.00;;
71810;SDS011;59657;0.000;0.000;2023-02-01T15:11:30;1.27;;;1.17;;
71810;SDS011;59657;0.000;0.000;2023-02-01T15:16:25;0.82;;;0.82;;
71810;SDS011;59657;0.000;0.000;2023-02-01T15:19:06;1.10;;;1.10;;
71810;SDS011;59657;0.000;0.000;2023-02-01T15:21:33;1.30;;;1.20;;
71810;SDS011;59657;0.000;0.000;2023-02-01T15:24:13;1.40;;;1.30;;
71810;SDS011;59657;0.000;0.000;2023-02-01T15:26:39;1.17;;;1.10;;
71810;SDS011;59657;0.000;0.000;2023-02-01T15:29:09;0.95;;;0.93;;
71810;SDS011;59657;0.000;0.000;2023-02-01T15:31:37;1.00;;;1.00;;
71810;SDS011;59657;0.000;0.000;2023-02-01T15:34:05;1.00;;;0.93;;
71810;SDS011;59657;0.000;0.000;2023-02-01T15:36:32;1.20;;;1.10;;
71810;SDS011;59657;0.000;0.000;2023-02-01T15:41:36;1.10;;;1.00;;
71810;SDS011;59657;0.000;0.000;2023-02-01T15:46:30;1.17;;;1.17;;
71810;SDS011;59657;0.000;0.000;2023-02-01T15:48:57;1.35;;;1.30;;
71810;SDS011;59657;0.000;0.000;2023-02-01T15:51:25;1.30;;;1.30;;
71810;SDS011;59657;0.000;0.000;2023-02-01T15:53:54;2.10;;;1.63;;
71810;SDS011;59657;0.000;0.000;2023-02-01T15:56:24;1.70;;;1.60;;
71810;SDS011;59657;0.000;0.000;2023-02-01T15:58:52;1.67;;;1.58;;
71810;SDS011;59657;0.000;0.000;2023-02-01T16:01:19;1.10;;;1.10;;
71810;SDS011;59657;0.000;0.000;2023-02-01T16:03:46;1.00;;;1.00;;
71810;SDS011;59657;0.000;0.000;2023-02-01T16:06:29;1.10;;;1.10;;
71810;SDS011;59657;0.000;0.000;2023-02-01T16:09:12;1.33;;;1.23;;
71810;SDS011;59657;0.000;0.000;2023-02-01T16:11:48;2.00;;;1.17;;
71810;SDS011;59657;0.000;0.000;2023-02-01T16:14:15;1.23;;;1.13;;
71810;SDS011;59657;0.000;0.000;2023-02-01T16:16:41;1.50;;;1.40;;
71810;SDS011;59657;0.000;0.000;2023-02-01T16:19:08;1.30;;;1.27;;
71810;SDS011;59657;0.000;0.000;2023-02-01T16:21:35;1.00;;;1.00;;
71810;SDS011;59657;0.000;0.000;2023-02-01T16:24:01;1.85;;;1.52;;
71810;SDS011;59657;0.000;0.000;2023-02-01T16:26:31;1.52;;;1.38;;
71810;SDS011;59657;0.000;0.000;2023-02-01T16:28:58;1.48;;;1.42;;
71810;SDS011;59657;0.000;0.000;2023-02-01T16:31:29;1.60;;;1.30;;
71810;SDS011;59657;0.000;0.000;2023-02-01T16:33:56;1.60;;;1.50;;
71810;SDS011;59657;0.000;0.000;2023-02-01T16:36:23;2.78;;;1.40;;
71810;SDS011;59657;0.000;0.000;2023-02-01T16:38:50;1.40;;;1.30;;
71810;SDS011;59657;0.000;0.000;2023-02-01T16:41:19;0.93;;;0.93;;
71810;SDS011;59657;0.000;0.000;2023-02-01T16:43:45;1.10;;;1.10;;
71810;SDS011;59657;0.000;0.000;2023-02-01T16:46:16;1.42;;;1.38;;
71810;SDS011;59657;0.000;0.000;2023-02-01T16:48:45;1.40;;;1.30;;
71810;SDS011;59657;0.000;0.000;2023-02-01T16:51:13;1.45;;;1.35;;
71810;SDS011;59657;0.000;0.000;2023-02-01T16:53:41;0.95;;;0.90;;
71810;SDS011;59657;0.000;0.000;2023-02-01T16:58:35;1.50;;;1.40;;
71810;SDS011;59657;0.000;0.000;2023-02-01T17:01:03;1.10;;;1.10;;
71810;SDS011;59657;0.000;0.000;2023-02-01T17:03:30;1.77;;;1.10;;
71810;SDS011;59657;0.000;0.000;2023-02-01T17:05:57;1.50;;;1.40;;
71810;SDS011;59657;0.000;0.000;2023-02-01T17:08:27;1.65;;;1.55;;
71810;SDS011;59657;0.000;0.000;2023-02-01T17:10:54;1.23;;;1.08;;
71810;SDS011;59657;0.000;0.000;2023-02-01T17:15:56;1.13;;;1.13;;
71810;SDS011;59657;0.000;0.000;2023-02-01T17:18:23;1.08;;;1.08;;
71810;SDS011;59657;0.000;0.000;2023-02-01T17:20:52;1.10;;;1.10;;
71810;SDS011;59657;0.000;0.000;2023-02-01T17:25:45;1.75;;;1.65;;
71810;SDS011;59657;0.000;0.000;2023-02-01T17:28:13;1.55;;;1.38;;
71810;SDS011;59657;0.000;0.000;2023-02-01T17:30:39;1.65;;;1.55;;
71810;SDS011;59657;0.000;0.000;2023-02-01T17:33:39;1.77;;;1.67;;
71810;SDS011;59657;0.000;0.000;2023-02-01T17:35:53;1.42;;;1.10;;